Flight Track Log - Related Links

Times and Time Zones

All times are in EST time to prevent confusion due to time zone crossing. See the N848TC flight status page for this flight to view local times or setup timezone preferences in your user account.

Time Position Orientation Groundspeed Altitude Reporting Facility
EST Latitude Longitude Course Direction KTS km/h feet Rate Location/Type
Fri 10:54:35 26.1925 -81.6931 88° East 211 391 3.400  Level Miami Center
Fri 10:55:35 26.1953 -81.6075 88° East 250 463 5.700 2.550 Climbing Miami Center
Fri 10:56:35 26.2392 -81.5422 53° Northeast 259 480 8.500 2.800 Climbing Miami Center
Fri 10:57:35 26.2708 -81.4692 64° Northeast 259 480 11.300 2.550 Climbing Miami Center
Fri 10:58:35 26.3381 -81.4581 North 215 398 13.600 2.200 Climbing Miami Center
Fri 10:59:35 26.3692 -81.5264 297° West 195 360 15.700 2.100 Climbing Miami Center
Fri 11:00:35 26.3342 -81.5806 234° Southwest 210 389 17.800 2.150 Climbing Miami Center
Fri 11:01:35 26.2778 -81.6433 225° Southwest 230 426 20.000 1.100 Climbing Miami Center
Fri 11:02:35 26.2131 -81.7078 222° Southwest 273 505 20.000 50 Level Miami Center
Fri 11:03:35 26.1375 -81.7808 221° Southwest 326 604 20.100 1.350 Climbing Miami Center
Fri 11:04:35 26.1092 -81.8769 252° West 336 623 22.700 1.450 Climbing Miami Center
Fri 11:05:35 26.1119 -81.9789 272° West 319 591 23.000 1.300 Climbing Miami Center
Fri 11:06:35 26.1081 -82.0872 268° West 338 626 25.300 2.450 Climbing Miami Center
Fri 11:07:35 26.1111 -82.1775 272° West 325 602 27.900 2.350 Climbing Miami Center
Fri 11:08:35 26.1139 -82.2678 272° West 307 568 30.000 2.100 Climbing Miami Center
Fri 11:09:35 26.1256 -82.3494 279° West 285 528 32.100 1.900 Climbing Miami Center
Fri 11:10:35 26.1331 -82.4283 276° West 273 505 33.800 1.450 Climbing Miami Center
Fri 11:11:35 26.1358 -82.5186 272° West 261 483 35.000 600 Climbing Miami Center
Fri 11:12:35 26.1408 -82.6044 274° West 269 499 35.000  Level Miami Center
Fri 11:13:35 26.1431 -82.7017 271° West 299 554 35.000  Level Miami Center
Fri 11:14:35 26.1450 -82.8081 271° West 329 610 35.000  Level Miami Center
Fri 11:15:35 26.1447 -82.9214 270° West 350 649 35.000  Level Miami Center
Fri 11:16:35 26.1503 -83.0350 273° West 370 686 35.000 -50 Level Miami Center
Fri 11:17:35 26.2169 -83.1333 307° West 375 695 34.900 -750 Descending Miami Center
Fri 11:18:35 26.3322 -83.1719 343° North 376 697 33.500 -3.150 Descending Miami Center
Fri 11:19:35 26.4550 -83.1344 15° North 393 727 28.600 -5.350 Descending Miami Center
Fri 11:20:35 26.5331 -83.0178 53° Northeast 383 710 22.800 -5.100 Descending Miami Center
Fri 11:21:35 26.5028 -82.8889 105° East 338 626 18.400 -3.100 Descending Miami Center
Fri 11:22:35 26.4378 -82.7997 129° Southeast 320 592 16.600 -1.950 Descending Miami Center
Fri 11:23:35 26.3683 -82.7106 131° Southeast 344 637 14.500 -2.100 Descending Miami Center
Fri 11:24:35 26.2989 -82.6189 130° Southeast 372 689 12.400 -2.000 Descending Miami Center
Fri 11:25:35 26.2294 -82.5253 130° Southeast 383 710 10.500 -1.700 Descending Miami Center
Fri 11:26:35 26.1778 -82.4606 132° Southeast 346 641 9.000 -1.550 Descending Miami Center
Fri 11:27:35 26.1261 -82.3864 128° Southeast 310 575 7.400 -1.000 Descending Miami Center
Fri 11:28:35 26.1503 -82.3042 72° East 262 486 7.000 -200 Descending Miami Center
Fri 11:29:35 26.2006 -82.2372 50° Northeast 250 463 7.000  Level Miami Center
Fri 11:30:35 26.2492 -82.1700 51° Northeast 259 480 7.000  Level Miami Center
Fri 11:31:35 26.2908 -82.1139 50° Northeast 243 451 7.000 -600 Level Miami Center
Fri 11:32:35 26.3303 -82.0600 51° Northeast 223 414 5.800 -1.500 Descending Miami Center
Fri 11:33:35 26.3697 -82.0061 51° Northeast 223 414 4.000 -900 Descending Miami Center
Fri 11:34:35 26.4164 -81.9850 22° Northeast 198 367 4.000 -550 Level Miami Center
Fri 11:35:35 26.4331 -81.9300 71° East 174 322 2.900 -950 Descending Miami Center
Fri 11:36:35 26.4533 -81.8844 64° Northeast 166 307 2.100 -700 Descending Miami Center
Fri 11:37:35 26.4733 -81.8506 57° Northeast 143 266 1.500 -600 Descending Miami Center
Fri 11:39:00 26.5085 -81.7667 180° South  Level FlightAware Approximate
Fri 11:46:00 26.1500 -81.7667 180° South  Level FlightAware Approximate
Fri 11:47:00 26.1524 -81.7756 180° South  Level Estimated
Fri 11:48:00 26.1524 -81.7756 180° South  Level Estimated
Fri 11:49:00 26.1524 -81.7756 180° South  Level Estimated

Login

Don't have an account? Register now (free) for customized features, flight alerts, and more!